sensor_id;sensor_type;location;lat;lon;timestamp;pressure;altitude;pressure_sealevel;temperature;humidity
6694;BME280;3384;42.628;23.380;2023-09-08T00:02:13;94756.38;;;19.68;100.00
6694;BME280;3384;42.628;23.380;2023-09-08T00:04:42;94750.09;;;19.79;100.00
6694;BME280;3384;42.628;23.380;2023-09-08T00:07:08;94746.84;;;19.62;100.00
6694;BME280;3384;42.628;23.380;2023-09-08T00:09:35;94749.94;;;19.60;100.00
6694;BME280;3384;42.628;23.380;2023-09-08T00:12:02;94744.91;;;19.74;100.00
6694;BME280;3384;42.628;23.380;2023-09-08T00:14:29;94736.22;;;19.69;100.00
6694;BME280;3384;42.628;23.380;2023-09-08T00:16:56;94739.16;;;19.64;100.00
6694;BME280;3384;42.628;23.380;2023-09-08T00:19:24;94738.06;;;19.53;100.00
6694;BME280;3384;42.628;23.380;2023-09-08T00:21:51;94724.41;;;19.37;100.00
6694;BME280;3384;42.628;23.380;2023-09-08T00:24:18;94728.34;;;19.40;100.00
6694;BME280;3384;42.628;23.380;2023-09-08T00:26:45;94733.31;;;19.50;100.00
6694;BME280;3384;42.628;23.380;2023-09-08T00:29:12;94719.66;;;19.62;100.00
6694;BME280;3384;42.628;23.380;2023-09-08T00:31:38;94725.38;;;19.57;100.00
6694;BME280;3384;42.628;23.380;2023-09-08T00:34:05;94737.19;;;19.37;100.00
6694;BME280;3384;42.628;23.380;2023-09-08T00:36:34;94724.91;;;19.55;100.00
6694;BME280;3384;42.628;23.380;2023-09-08T00:39:01;94729.38;;;19.47;100.00
6694;BME280;3384;42.628;23.380;2023-09-08T00:41:27;94718.16;;;19.49;100.00
6694;BME280;3384;42.628;23.380;2023-09-08T00:43:54;94722.66;;;19.57;100.00
6694;BME280;3384;42.628;23.380;2023-09-08T00:46:21;94720.53;;;19.50;100.00
6694;BME280;3384;42.628;23.380;2023-09-08T00:48:48;94718.38;;;19.44;100.00
6694;BME280;3384;42.628;23.380;2023-09-08T00:51:15;94722.66;;;19.57;100.00
6694;BME280;3384;42.628;23.380;2023-09-08T00:53:43;94716.59;;;19.36;100.00
6694;BME280;3384;42.628;23.380;2023-09-08T00:56:10;94719.72;;;19.77;100.00
6694;BME280;3384;42.628;23.380;2023-09-08T00:58:38;94703.47;;;19.65;100.00
6694;BME280;3384;42.628;23.380;2023-09-08T01:01:06;94723.44;;;19.85;100.00
6694;BME280;3384;42.628;23.380;2023-09-08T01:03:33;94710.06;;;19.52;100.00
6694;BME280;3384;42.628;23.380;2023-09-08T01:06:00;94711.63;;;19.65;100.00
6694;BME280;3384;42.628;23.380;2023-09-08T01:08:28;94713.06;;;19.75;100.00
6694;BME280;3384;42.628;23.380;2023-09-08T01:10:56;94714.47;;;19.69;100.00
6694;BME280;3384;42.628;23.380;2023-09-08T01:13:23;94717.13;;;19.53;100.00
6694;BME280;3384;42.628;23.380;2023-09-08T01:15:50;94718.63;;;19.39;100.00
6694;BME280;3384;42.628;23.380;2023-09-08T01:18:17;94723.69;;;19.52;100.00
6694;BME280;3384;42.628;23.380;2023-09-08T01:20:55;94721.56;;;19.22;100.00
6694;BME280;3384;42.628;23.380;2023-09-08T01:23:39;94720.00;;;19.21;100.00
6694;BME280;3384;42.628;23.380;2023-09-08T01:26:15;94723.88;;;19.08;100.00
6694;BME280;3384;42.628;23.380;2023-09-08T01:28:44;94727.69;;;19.19;100.00
6694;BME280;3384;42.628;23.380;2023-09-08T01:31:12;94721.50;;;19.06;100.00
6694;BME280;3384;42.628;23.380;2023-09-08T01:33:39;94721.38;;;19.15;100.00
6694;BME280;3384;42.628;23.380;2023-09-08T01:36:07;94716.38;;;19.29;100.00
6694;BME280;3384;42.628;23.380;2023-09-08T01:38:34;94720.41;;;19.47;100.00
6694;BME280;3384;42.628;23.380;2023-09-08T01:41:01;94713.75;;;19.20;100.00
6694;BME280;3384;42.628;23.380;2023-09-08T01:43:29;94708.34;;;19.20;100.00
6694;BME280;3384;42.628;23.380;2023-09-08T01:45:56;94704.75;;;19.56;100.00
6694;BME280;3384;42.628;23.380;2023-09-08T01:48:22;94706.78;;;19.59;100.00
6694;BME280;3384;42.628;23.380;2023-09-08T01:50:49;94709.53;;;19.47;100.00
6694;BME280;3384;42.628;23.380;2023-09-08T01:53:16;94706.06;;;19.22;100.00
6694;BME280;3384;42.628;23.380;2023-09-08T01:55:43;94713.53;;;19.25;100.00
6694;BME280;3384;42.628;23.380;2023-09-08T01:58:10;94711.09;;;19.08;100.00
6694;BME280;3384;42.628;23.380;2023-09-08T02:00:39;94704.50;;;18.97;100.00
6694;BME280;3384;42.628;23.380;2023-09-08T02:03:05;94699.78;;;18.82;100.00
6694;BME280;3384;42.628;23.380;2023-09-08T02:05:32;94705.66;;;19.08;100.00
6694;BME280;3384;42.628;23.380;2023-09-08T02:08:04;94704.63;;;19.00;100.00
6694;BME280;3384;42.628;23.380;2023-09-08T02:10:31;94703.00;;;19.24;100.00
6694;BME280;3384;42.628;23.380;2023-09-08T02:12:58;94702.56;;;19.22;100.00
6694;BME280;3384;42.628;23.380;2023-09-08T02:15:25;94704.72;;;19.16;100.00
6694;BME280;3384;42.628;23.380;2023-09-08T02:17:54;94696.69;;;19.08;100.00
6694;BME280;3384;42.628;23.380;2023-09-08T02:20:20;94698.94;;;19.30;100.00
6694;BME280;3384;42.628;23.380;2023-09-08T02:22:49;94684.59;;;19.05;100.00
6694;BME280;3384;42.628;23.380;2023-09-08T02:25:16;94686.06;;;18.78;100.00
6694;BME280;3384;42.628;23.380;2023-09-08T02:27:43;94681.25;;;18.60;100.00
6694;BME280;3384;42.628;23.380;2023-09-08T02:30:10;94685.75;;;18.68;100.00
6694;BME280;3384;42.628;23.380;2023-09-08T02:32:37;94683.94;;;18.72;100.00
6694;BME280;3384;42.628;23.380;2023-09-08T02:35:05;94682.69;;;18.93;100.00
6694;BME280;3384;42.628;23.380;2023-09-08T02:37:33;94683.47;;;18.94;100.00
6694;BME280;3384;42.628;23.380;2023-09-08T02:40:01;94680.94;;;19.13;100.00
6694;BME280;3384;42.628;23.380;2023-09-08T02:42:28;94672.16;;;18.80;100.00
6694;BME280;3384;42.628;23.380;2023-09-08T02:44:55;94669.13;;;18.69;100.00
6694;BME280;3384;42.628;23.380;2023-09-08T02:47:22;94677.72;;;18.59;100.00
6694;BME280;3384;42.628;23.380;2023-09-08T02:49:49;94686.31;;;18.49;100.00
6694;BME280;3384;42.628;23.380;2023-09-08T02:52:17;94684.22;;;18.10;100.00
6694;BME280;3384;42.628;23.380;2023-09-08T02:54:45;94677.13;;;18.30;100.00
6694;BME280;3384;42.628;23.380;2023-09-08T02:57:12;94674.44;;;18.42;100.00
6694;BME280;3384;42.628;23.380;2023-09-08T02:59:38;94674.88;;;18.32;100.00
6694;BME280;3384;42.628;23.380;2023-09-08T03:02:05;94674.34;;;18.38;100.00
6694;BME280;3384;42.628;23.380;2023-09-08T03:04:32;94677.22;;;18.21;100.00
6694;BME280;3384;42.628;23.380;2023-09-08T03:06:59;94677.13;;;18.18;100.00
6694;BME280;3384;42.628;23.380;2023-09-08T03:09:27;94675.41;;;18.13;100.00
6694;BME280;3384;42.628;23.380;2023-09-08T03:11:54;94667.06;;;18.30;100.00
6694;BME280;3384;42.628;23.380;2023-09-08T03:14:20;94681.94;;;18.00;100.00
6694;BME280;3384;42.628;23.380;2023-09-08T03:16:47;94675.19;;;18.18;100.00
6694;BME280;3384;42.628;23.380;2023-09-08T03:19:14;94692.94;;;18.16;100.00
6694;BME280;3384;42.628;23.380;2023-09-08T03:21:41;94679.47;;;18.19;100.00
6694;BME280;3384;42.628;23.380;2023-09-08T03:24:08;94677.66;;;18.11;100.00
6694;BME280;3384;42.628;23.380;2023-09-08T03:26:36;94680.41;;;18.23;100.00
6694;BME280;3384;42.628;23.380;2023-09-08T03:29:03;94681.56;;;17.90;100.00
6694;BME280;3384;42.628;23.380;2023-09-08T03:31:30;94682.03;;;18.04;100.00
6694;BME280;3384;42.628;23.380;2023-09-08T03:33:57;94686.47;;;17.96;100.00
6694;BME280;3384;42.628;23.380;2023-09-08T03:36:24;94681.81;;;17.97;100.00
6694;BME280;3384;42.628;23.380;2023-09-08T03:38:51;94686.31;;;17.93;100.00
6694;BME280;3384;42.628;23.380;2023-09-08T03:41:17;94687.38;;;18.00;100.00
6694;BME280;3384;42.628;23.380;2023-09-08T03:43:45;94689.16;;;17.96;100.00
6694;BME280;3384;42.628;23.380;2023-09-08T03:46:14;94685.31;;;17.85;100.00
6694;BME280;3384;42.628;23.380;2023-09-08T03:48:41;94688.25;;;17.92;100.00
6694;BME280;3384;42.628;23.380;2023-09-08T03:51:08;94685.16;;;17.70;100.00
6694;BME280;3384;42.628;23.380;2023-09-08T03:53:35;94678.97;;;17.49;100.00
6694;BME280;3384;42.628;23.380;2023-09-08T03:56:02;94680.59;;;17.41;100.00
6694;BME280;3384;42.628;23.380;2023-09-08T03:58:28;94684.72;;;17.47;100.00
6694;BME280;3384;42.628;23.380;2023-09-08T04:00:56;94681.44;;;17.42;100.00
6694;BME280;3384;42.628;23.380;2023-09-08T04:03:23;94684.84;;;17.51;100.00
6694;BME280;3384;42.628;23.380;2023-09-08T04:05:50;94695.50;;;17.56;100.00
6694;BME280;3384;42.628;23.380;2023-09-08T04:08:17;94688.25;;;17.39;100.00
6694;BME280;3384;42.628;23.380;2023-09-08T04:10:43;94692.97;;;17.51;100.00
6694;BME280;3384;42.628;23.380;2023-09-08T04:13:10;94690.25;;;17.71;100.00
6694;BME280;3384;42.628;23.380;2023-09-08T04:15:37;94688.03;;;17.85;100.00
6694;BME280;3384;42.628;23.380;2023-09-08T04:18:06;94693.09;;;17.87;100.00
6694;BME280;3384;42.628;23.380;2023-09-08T04:20:33;94688.34;;;17.51;100.00
6694;BME280;3384;42.628;23.380;2023-09-08T04:23:00;94685.00;;;17.66;100.00
6694;BME280;3384;42.628;23.380;2023-09-08T04:25:27;94691.06;;;17.51;100.00
6694;BME280;3384;42.628;23.380;2023-09-08T04:27:53;94693.19;;;17.46;100.00
6694;BME280;3384;42.628;23.380;2023-09-08T04:30:20;94693.69;;;17.60;100.00
6694;BME280;3384;42.628;23.380;2023-09-08T04:32:47;94694.31;;;17.77;100.00
6694;BME280;3384;42.628;23.380;2023-09-08T04:35:15;94705.81;;;17.74;100.00
6694;BME280;3384;42.628;23.380;2023-09-08T04:37:42;94703.47;;;17.52;100.00
6694;BME280;3384;42.628;23.380;2023-09-08T04:40:10;94711.19;;;17.62;100.00
6694;BME280;3384;42.628;23.380;2023-09-08T04:42:37;94698.59;;;17.46;100.00
6694;BME280;3384;42.628;23.380;2023-09-08T04:45:04;94701.69;;;17.56;100.00
6694;BME280;3384;42.628;23.380;2023-09-08T04:47:31;94711.75;;;17.56;100.00
6694;BME280;3384;42.628;23.380;2023-09-08T04:49:58;94703.50;;;17.85;100.00
6694;BME280;3384;42.628;23.380;2023-09-08T04:52:26;94710.66;;;17.69;100.00
6694;BME280;3384;42.628;23.380;2023-09-08T04:54:53;94710.72;;;17.60;100.00
6694;BME280;3384;42.628;23.380;2023-09-08T04:57:20;94703.78;;;17.71;100.00
6694;BME280;3384;42.628;23.380;2023-09-08T04:59:47;94709.16;;;17.59;100.00
6694;BME280;3384;42.628;23.380;2023-09-08T05:02:13;94708.59;;;17.66;100.00
6694;BME280;3384;42.628;23.380;2023-09-08T05:04:40;94708.75;;;17.69;100.00
6694;BME280;3384;42.628;23.380;2023-09-08T05:07:07;94705.38;;;17.72;100.00
6694;BME280;3384;42.628;23.380;2023-09-08T05:09:35;94705.78;;;17.62;100.00
6694;BME280;3384;42.628;23.380;2023-09-08T05:12:02;94710.66;;;17.69;100.00
6694;BME280;3384;42.628;23.380;2023-09-08T05:14:29;94712.19;;;17.90;100.00
6694;BME280;3384;42.628;23.380;2023-09-08T05:16:56;94716.06;;;18.01;100.00
6694;BME280;3384;42.628;23.380;2023-09-08T05:19:23;94716.06;;;18.01;100.00
6694;BME280;3384;42.628;23.380;2023-09-08T05:21:50;94716.69;;;18.19;100.00
6694;BME280;3384;42.628;23.380;2023-09-08T05:24:17;94714.97;;;18.26;100.00
6694;BME280;3384;42.628;23.380;2023-09-08T05:26:47;94706.44;;;18.36;100.00
6694;BME280;3384;42.628;23.380;2023-09-08T05:29:14;94709.84;;;18.45;100.00
6694;BME280;3384;42.628;23.380;2023-09-08T05:31:41;94708.94;;;18.53;100.00
6694;BME280;3384;42.628;23.380;2023-09-08T05:34:07;94707.59;;;18.59;100.00
6694;BME280;3384;42.628;23.380;2023-09-08T05:36:34;94699.09;;;18.73;100.00
6694;BME280;3384;42.628;23.380;2023-09-08T05:39:03;94718.44;;;18.95;100.00
6694;BME280;3384;42.628;23.380;2023-09-08T05:41:30;94707.09;;;19.05;100.00
6694;BME280;3384;42.628;23.380;2023-09-08T05:44:00;94709.22;;;19.24;100.00
6694;BME280;3384;42.628;23.380;2023-09-08T05:46:27;94710.25;;;19.20;100.00
6694;BME280;3384;42.628;23.380;2023-09-08T05:48:53;94723.84;;;19.20;100.00
6694;BME280;3384;42.628;23.380;2023-09-08T05:51:20;94713.66;;;19.29;100.00
6694;BME280;3384;42.628;23.380;2023-09-08T05:53:48;94714.75;;;19.40;100.00
6694;BME280;3384;42.628;23.380;2023-09-08T05:56:14;94715.44;;;19.49;100.00
6694;BME280;3384;42.628;23.380;2023-09-08T05:58:41;94713.19;;;19.66;100.00
6694;BME280;3384;42.628;23.380;2023-09-08T06:01:09;94712.78;;;19.64;100.00
6694;BME280;3384;42.628;23.380;2023-09-08T06:03:36;94709.84;;;19.85;100.00
6694;BME280;3384;42.628;23.380;2023-09-08T06:06:03;94719.38;;;19.79;100.00
6694;BME280;3384;42.628;23.380;2023-09-08T06:08:30;94713.75;;;19.72;100.00
6694;BME280;3384;42.628;23.380;2023-09-08T06:10:56;94714.75;;;19.79;100.00
6694;BME280;3384;42.628;23.380;2023-09-08T06:13:23;94707.72;;;19.78;100.00
6694;BME280;3384;42.628;23.380;2023-09-08T06:15:51;94717.00;;;19.77;100.00
6694;BME280;3384;42.628;23.380;2023-09-08T06:18:19;94718.19;;;19.92;100.00
6694;BME280;3384;42.628;23.380;2023-09-08T06:20:46;94711.09;;;20.03;100.00
6694;BME280;3384;42.628;23.380;2023-09-08T06:23:13;94716.28;;;20.35;100.00
6694;BME280;3384;42.628;23.380;2023-09-08T06:25:41;94721.47;;;20.25;100.00
6694;BME280;3384;42.628;23.380;2023-09-08T06:28:07;94713.47;;;20.32;100.00
6694;BME280;3384;42.628;23.380;2023-09-08T06:30:34;94714.25;;;20.32;100.00
6694;BME280;3384;42.628;23.380;2023-09-08T06:33:01;94714.72;;;20.34;100.00
6694;BME280;3384;42.628;23.380;2023-09-08T06:35:30;94726.94;;;20.40;100.00
6694;BME280;3384;42.628;23.380;2023-09-08T06:37:57;94727.34;;;20.58;100.00
6694;BME280;3384;42.628;23.380;2023-09-08T06:40:23;94727.88;;;20.48;100.00
6694;BME280;3384;42.628;23.380;2023-09-08T06:42:50;94738.88;;;20.51;100.00
6694;BME280;3384;42.628;23.380;2023-09-08T06:45:17;94730.53;;;20.44;100.00
6694;BME280;3384;42.628;23.380;2023-09-08T06:47:44;94725.97;;;20.48;100.00
6694;BME280;3384;42.628;23.380;2023-09-08T06:50:11;94728.41;;;20.53;100.00
6694;BME280;3384;42.628;23.380;2023-09-08T06:52:39;94740.56;;;20.56;100.00
6694;BME280;3384;42.628;23.380;2023-09-08T06:55:06;94730.59;;;20.48;100.00
6694;BME280;3384;42.628;23.380;2023-09-08T06:57:34;94735.09;;;20.56;100.00
6694;BME280;3384;42.628;23.380;2023-09-08T07:00:02;94720.34;;;20.72;100.00
6694;BME280;3384;42.628;23.380;2023-09-08T07:02:32;94725.09;;;20.75;100.00
6694;BME280;3384;42.628;23.380;2023-09-08T07:04:59;94733.44;;;20.98;100.00
6694;BME280;3384;42.628;23.380;2023-09-08T07:07:31;94722.47;;;21.29;99.83
6694;BME280;3384;42.628;23.380;2023-09-08T07:10:00;94725.31;;;21.17;100.00
6694;BME280;3384;42.628;23.380;2023-09-08T07:12:26;94734.66;;;21.35;100.00
6694;BME280;3384;42.628;23.380;2023-09-08T07:14:53;94723.59;;;21.28;99.53
6694;BME280;3384;42.628;23.380;2023-09-08T07:17:20;94727.75;;;21.56;95.97
6694;BME280;3384;42.628;23.380;2023-09-08T07:19:48;94738.44;;;21.46;98.41
6694;BME280;3384;42.628;23.380;2023-09-08T07:22:15;94727.09;;;21.44;96.25
6694;BME280;3384;42.628;23.380;2023-09-08T07:24:42;94714.56;;;21.58;95.89
6694;BME280;3384;42.628;23.380;2023-09-08T07:27:11;94727.28;;;21.70;96.85
6694;BME280;3384;42.628;23.380;2023-09-08T07:29:39;94719.69;;;21.79;96.63
6694;BME280;3384;42.628;23.380;2023-09-08T07:32:06;94720.59;;;22.06;98.71
6694;BME280;3384;42.628;23.380;2023-09-08T07:34:33;94718.09;;;21.97;98.33
6694;BME280;3384;42.628;23.380;2023-09-08T07:37:00;94726.34;;;22.01;92.82
6694;BME280;3384;42.628;23.380;2023-09-08T07:39:27;94717.38;;;22.00;90.15
6694;BME280;3384;42.628;23.380;2023-09-08T07:41:55;94716.38;;;22.08;86.16
6694;BME280;3384;42.628;23.380;2023-09-08T07:44:24;94714.63;;;22.00;86.24
6694;BME280;3384;42.628;23.380;2023-09-08T07:46:51;94722.28;;;21.91;89.30
6694;BME280;3384;42.628;23.380;2023-09-08T07:49:18;94710.91;;;21.70;92.69
6694;BME280;3384;42.628;23.380;2023-09-08T07:51:45;94717.16;;;21.90;93.59
6694;BME280;3384;42.628;23.380;2023-09-08T07:54:12;94709.97;;;21.82;92.25
6694;BME280;3384;42.628;23.380;2023-09-08T07:56:39;94713.41;;;21.98;90.11
6694;BME280;3384;42.628;23.380;2023-09-08T07:59:06;94717.44;;;22.04;89.49
6694;BME280;3384;42.628;23.380;2023-09-08T08:01:35;94712.97;;;22.15;86.53
6694;BME280;3384;42.628;23.380;2023-09-08T08:04:01;94717.38;;;22.42;83.98
6694;BME280;3384;42.628;23.380;2023-09-08T08:06:29;94709.47;;;22.37;85.38
6694;BME280;3384;42.628;23.380;2023-09-08T08:08:55;94710.47;;;22.48;85.42
6694;BME280;3384;42.628;23.380;2023-09-08T08:11:22;94709.19;;;22.87;86.76
6694;BME280;3384;42.628;23.380;2023-09-08T08:13:50;94706.78;;;22.59;84.53
6694;BME280;3384;42.628;23.380;2023-09-08T08:16:17;94712.28;;;22.40;81.13
6694;BME280;3384;42.628;23.380;2023-09-08T08:18:47;94704.22;;;22.47;80.17
6694;BME280;3384;42.628;23.380;2023-09-08T08:21:15;94706.66;;;22.52;83.55
6694;BME280;3384;42.628;23.380;2023-09-08T08:23:41;94710.22;;;22.56;85.06
6694;BME280;3384;42.628;23.380;2023-09-08T08:26:08;94709.09;;;22.57;84.81
6694;BME280;3384;42.628;23.380;2023-09-08T08:28:35;94701.75;;;22.61;83.22
6694;BME280;3384;42.628;23.380;2023-09-08T08:31:02;94700.56;;;22.85;74.35
6694;BME280;3384;42.628;23.380;2023-09-08T08:33:29;94697.13;;;22.65;75.48
6694;BME280;3384;42.628;23.380;2023-09-08T08:35:57;94701.47;;;22.92;77.84
6694;BME280;3384;42.628;23.380;2023-09-08T08:38:24;94698.31;;;22.90;75.05
6694;BME280;3384;42.628;23.380;2023-09-08T08:40:51;94704.56;;;22.91;74.88
6694;BME280;3384;42.628;23.380;2023-09-08T08:43:21;94692.28;;;22.55;75.14
6694;BME280;3384;42.628;23.380;2023-09-08T08:45:48;94685.03;;;22.66;75.40
6694;BME280;3384;42.628;23.380;2023-09-08T08:48:18;94687.75;;;22.66;73.98
6694;BME280;3384;42.628;23.380;2023-09-08T08:50:50;94690.56;;;22.70;73.02
6694;BME280;3384;42.628;23.380;2023-09-08T08:53:20;94684.75;;;22.71;71.98
6694;BME280;3384;42.628;23.380;2023-09-08T08:55:49;94687.22;;;22.80;75.91
6694;BME280;3384;42.628;23.380;2023-09-08T08:58:18;94690.44;;;22.85;78.46
6694;BME280;3384;42.628;23.380;2023-09-08T09:00:50;94677.00;;;23.03;78.56
6694;BME280;3384;42.628;23.380;2023-09-08T09:03:19;94684.59;;;23.13;77.92
6694;BME280;3384;42.628;23.380;2023-09-08T09:05:46;94679.84;;;23.10;78.02
6694;BME280;3384;42.628;23.380;2023-09-08T09:08:14;94685.28;;;23.32;77.45
6694;BME280;3384;42.628;23.380;2023-09-08T09:10:43;94684.78;;;23.23;77.09
6694;BME280;3384;42.628;23.380;2023-09-08T09:13:10;94680.22;;;23.31;74.30
6694;BME280;3384;42.628;23.380;2023-09-08T09:15:37;94675.13;;;23.59;74.18
6694;BME280;3384;42.628;23.380;2023-09-08T09:18:05;94691.16;;;23.60;72.13
6694;BME280;3384;42.628;23.380;2023-09-08T09:20:32;94683.03;;;23.67;72.06
6694;BME280;3384;42.628;23.380;2023-09-08T09:22:59;94680.06;;;23.79;71.24
6694;BME280;3384;42.628;23.380;2023-09-08T09:25:28;94688.47;;;23.64;72.49
6694;BME280;3384;42.628;23.380;2023-09-08T09:27:58;94680.13;;;23.86;71.51
6694;BME280;3384;42.628;23.380;2023-09-08T09:30:25;94673.59;;;23.61;71.81
6694;BME280;3384;42.628;23.380;2023-09-08T09:33:00;94676.22;;;23.87;71.85
6694;BME280;3384;42.628;23.380;2023-09-08T09:35:42;94677.72;;;24.11;72.49
6694;BME280;3384;42.628;23.380;2023-09-08T09:38:09;94664.81;;;23.82;72.90
6694;BME280;3384;42.628;23.380;2023-09-08T09:40:37;94669.59;;;23.55;73.22
6694;BME280;3384;42.628;23.380;2023-09-08T09:43:06;94671.94;;;23.57;67.82
6694;BME280;3384;42.628;23.380;2023-09-08T09:45:34;94678.47;;;23.78;69.18
6694;BME280;3384;42.628;23.380;2023-09-08T09:48:02;94678.56;;;23.85;72.90
6694;BME280;3384;42.628;23.380;2023-09-08T09:50:30;94667.75;;;23.66;74.55
6694;BME280;3384;42.628;23.380;2023-09-08T09:52:58;94663.38;;;23.29;74.82
6694;BME280;3384;42.628;23.380;2023-09-08T09:55:26;94670.97;;;23.42;74.63
6694;BME280;3384;42.628;23.380;2023-09-08T09:57:56;94662.03;;;23.19;70.58
6694;BME280;3384;42.628;23.380;2023-09-08T10:00:25;94654.97;;;23.44;70.80
6694;BME280;3384;42.628;23.380;2023-09-08T10:02:53;94660.28;;;23.30;70.06
6694;BME280;3384;42.628;23.380;2023-09-08T10:05:20;94653.53;;;23.24;68.97
6694;BME280;3384;42.628;23.380;2023-09-08T10:07:47;94651.31;;;23.33;69.42
6694;BME280;3384;42.628;23.380;2023-09-08T10:10:15;94653.38;;;23.14;70.35
6694;BME280;3384;42.628;23.380;2023-09-08T10:12:43;94648.06;;;23.24;70.97
6694;BME280;3384;42.628;23.380;2023-09-08T10:15:11;94639.31;;;23.41;69.81
6694;BME280;3384;42.628;23.380;2023-09-08T10:17:41;94643.78;;;23.89;69.23
6694;BME280;3384;42.628;23.380;2023-09-08T10:20:10;94641.16;;;23.96;68.13
6694;BME280;3384;42.628;23.380;2023-09-08T10:22:42;94632.69;;;23.75;69.46
6694;BME280;3384;42.628;23.380;2023-09-08T10:25:09;94637.22;;;23.94;69.79
6694;BME280;3384;42.628;23.380;2023-09-08T10:27:39;94634.72;;;23.82;69.71
6694;BME280;3384;42.628;23.380;2023-09-08T10:30:07;94630.78;;;23.79;70.02
6694;BME280;3384;42.628;23.380;2023-09-08T10:32:35;94640.81;;;23.68;71.32
6694;BME280;3384;42.628;23.380;2023-09-08T10:35:05;94639.03;;;23.50;73.16
6694;BME280;3384;42.628;23.380;2023-09-08T10:37:32;94638.09;;;23.68;72.31
6694;BME280;3384;42.628;23.380;2023-09-08T10:40:20;94640.47;;;23.73;70.86
6694;BME280;3384;42.628;23.380;2023-09-08T10:42:47;94630.78;;;23.79;71.17
6694;BME280;3384;42.628;23.380;2023-09-08T10:45:16;94633.66;;;23.90;71.15
6694;BME280;3384;42.628;23.380;2023-09-08T10:47:56;94628.75;;;24.06;70.87
6694;BME280;3384;42.628;23.380;2023-09-08T10:50:31;94642.50;;;24.13;70.14
6694;BME280;3384;42.628;23.380;2023-09-08T10:53:05;94632.22;;;24.03;70.04
6694;BME280;3384;42.628;23.380;2023-09-08T10:55:35;94636.84;;;23.62;73.08
6694;BME280;3384;42.628;23.380;2023-09-08T10:58:03;94633.63;;;23.57;73.87
6694;BME280;3384;42.628;23.380;2023-09-08T11:00:42;94630.19;;;23.63;74.09
6694;BME280;3384;42.628;23.380;2023-09-08T11:03:09;94633.22;;;23.55;73.30
6694;BME280;3384;42.628;23.380;2023-09-08T11:05:38;94625.88;;;23.62;76.10
6694;BME280;3384;42.628;23.380;2023-09-08T11:08:05;94638.59;;;23.48;75.95
6694;BME280;3384;42.628;23.380;2023-09-08T11:10:32;94617.97;;;23.54;75.30
6694;BME280;3384;42.628;23.380;2023-09-08T11:13:00;94620.97;;;23.45;76.08
6694;BME280;3384;42.628;23.380;2023-09-08T11:15:28;94621.03;;;23.49;77.37
6694;BME280;3384;42.628;23.380;2023-09-08T11:17:55;94627.72;;;23.51;77.64
6694;BME280;3384;42.628;23.380;2023-09-08T11:20:26;94626.44;;;23.45;79.12
6694;BME280;3384;42.628;23.380;2023-09-08T11:22:55;94623.88;;;23.26;79.77
6694;BME280;3384;42.628;23.380;2023-09-08T11:25:22;94629.44;;;23.33;78.06
6694;BME280;3384;42.628;23.380;2023-09-08T11:27:49;94622.97;;;23.48;77.88
6694;BME280;3384;42.628;23.380;2023-09-08T11:30:17;94621.44;;;23.51;78.58
6694;BME280;3384;42.628;23.380;2023-09-08T11:32:44;94621.16;;;23.26;80.64
6694;BME280;3384;42.628;23.380;2023-09-08T11:35:12;94620.97;;;23.45;79.56
6694;BME280;3384;42.628;23.380;2023-09-08T11:37:41;94613.50;;;23.42;79.88
6694;BME280;3384;42.628;23.380;2023-09-08T11:40:10;94611.16;;;23.74;76.30
6694;BME280;3384;42.628;23.380;2023-09-08T11:42:38;94615.75;;;23.66;77.43
6694;BME280;3384;42.628;23.380;2023-09-08T11:45:10;94612.09;;;23.52;78.74
6694;BME280;3384;42.628;23.380;2023-09-08T11:47:42;94605.28;;;23.39;80.69
6694;BME280;3384;42.628;23.380;2023-09-08T11:50:10;94604.78;;;23.63;78.27
6694;BME280;3384;42.628;23.380;2023-09-08T11:52:41;94600.09;;;23.63;79.59
6694;BME280;3384;42.628;23.380;2023-09-08T11:55:11;94600.97;;;23.71;79.47
6694;BME280;3384;42.628;23.380;2023-09-08T11:57:39;94602.72;;;23.89;78.25
6694;BME280;3384;42.628;23.380;2023-09-08T12:00:07;94599.50;;;23.80;77.22
6694;BME280;3384;42.628;23.380;2023-09-08T12:02:36;94605.56;;;23.63;75.79
6694;BME280;3384;42.628;23.380;2023-09-08T12:05:04;94602.75;;;23.56;78.26
6694;BME280;3384;42.628;23.380;2023-09-08T12:07:31;94592.31;;;23.69;77.34
6694;BME280;3384;42.628;23.380;2023-09-08T12:09:58;94591.94;;;23.67;76.99
6694;BME280;3384;42.628;23.380;2023-09-08T12:12:27;94595.38;;;23.93;75.82
6694;BME280;3384;42.628;23.380;2023-09-08T12:14:54;94592.44;;;23.76;77.19
6694;BME280;3384;42.628;23.380;2023-09-08T12:17:21;94589.91;;;23.60;76.71
6694;BME280;3384;42.628;23.380;2023-09-08T12:19:50;94577.75;;;23.58;76.60
6694;BME280;3384;42.628;23.380;2023-09-08T12:22:17;94575.94;;;23.72;76.29
6694;BME280;3384;42.628;23.380;2023-09-08T12:24:49;94573.19;;;24.06;72.55
6694;BME280;3384;42.628;23.380;2023-09-08T12:27:17;94566.88;;;24.01;70.59
6694;BME280;3384;42.628;23.380;2023-09-08T12:29:59;94560.25;;;24.02;71.95
6694;BME280;3384;42.628;23.380;2023-09-08T12:32:30;94561.53;;;24.16;70.05
6694;BME280;3384;42.628;23.380;2023-09-08T12:34:58;94568.84;;;24.01;71.26
6694;BME280;3384;42.628;23.380;2023-09-08T12:37:26;94577.13;;;24.08;70.65
6694;BME280;3384;42.628;23.380;2023-09-08T12:39:54;94559.97;;;23.78;71.33
6694;BME280;3384;42.628;23.380;2023-09-08T12:42:21;94564.78;;;23.88;70.85
6694;BME280;3384;42.628;23.380;2023-09-08T12:44:51;94562.69;;;24.11;68.72
6694;BME280;3384;42.628;23.380;2023-09-08T12:47:19;94546.38;;;24.29;68.14
6694;BME280;3384;42.628;23.380;2023-09-08T12:49:46;94552.09;;;24.10;67.00
6694;BME280;3384;42.628;23.380;2023-09-08T12:52:13;94554.47;;;24.15;68.19
6694;BME280;3384;42.628;23.380;2023-09-08T12:54:40;94558.34;;;24.07;67.46
6694;BME280;3384;42.628;23.380;2023-09-08T12:57:07;94550.66;;;23.86;67.23
6694;BME280;3384;42.628;23.380;2023-09-08T12:59:34;94554.63;;;23.92;68.64
6694;BME280;3384;42.628;23.380;2023-09-08T13:02:00;94560.13;;;23.92;68.87
6694;BME280;3384;42.628;23.380;2023-09-08T13:04:40;94548.69;;;23.83;69.47
6694;BME280;3384;42.628;23.380;2023-09-08T13:07:07;94552.88;;;23.70;70.64
6694;BME280;3384;42.628;23.380;2023-09-08T13:09:33;94560.88;;;23.89;71.48